Time;durP1;ratioP1;P1;durP2;ratioP2;P2;SDS_P1;SDS_P2;PMS_P1;PMS_P2;Temp;Humidity;BMP_temperature;BMP_pressure;BME280_temperature;BME280_humidity;BME280_pressure;Samples;Min_cycle;Max_cycle;Signal;HPM_P1;HPM_P2
2022/03/31 00:00:03;;;;;;;1.80;1.70;;;;;;;;;;4976360;28;20041;-83
2022/03/31 00:02:29;;;;;;;1.90;1.35;;;;;;;;;;4976449;28;20027;-83
2022/03/31 00:04:55;;;;;;;0.32;0.32;;;;;;;;;;4969952;28;20376;-84
2022/03/31 00:07:21;;;;;;;2.70;0.47;;;;;;;;;;4980260;28;20034;-83
2022/03/31 00:09:47;;;;;;;0.30;0.30;;;;;;;;;;4975675;28;20034;-84
2022/03/31 00:12:13;;;;;;;0.30;0.30;;;;;;;;;;4978184;28;20030;-82
2022/03/31 00:14:39;;;;;;;0.83;0.83;;;;;;;;;;4977322;28;20039;-83
2022/03/31 00:17:05;;;;;;;2.28;1.45;;;;;;;;;;4970561;28;20026;-84
2022/03/31 00:19:31;;;;;;;0.67;0.67;;;;;;;;;;4978125;28;20067;-83
2022/03/31 00:21:57;;;;;;;0.68;0.68;;;;;;;;;;4972845;28;20030;-84
2022/03/31 00:24:23;;;;;;;0.40;0.40;;;;;;;;;;4974535;28;20496;-84
2022/03/31 00:26:49;;;;;;;0.40;0.40;;;;;;;;;;4974682;28;20038;-83
2022/03/31 00:29:16;;;;;;;1.08;1.02;;;;;;;;;;4970774;28;20455;-83
2022/03/31 00:31:42;;;;;;;0.65;0.63;;;;;;;;;;4970688;28;20222;-83
2022/03/31 00:34:08;;;;;;;1.08;0.63;;;;;;;;;;4975241;28;20040;-83
2022/03/31 00:36:34;;;;;;;1.30;1.20;;;;;;;;;;4975090;28;20027;-83
2022/03/31 00:41:46;;;;;;;1.40;1.30;;;;;;;;;;4972506;28;20037;-83
2022/03/31 00:44:12;;;;;;;1.98;1.83;;;;;;;;;;4975783;28;20035;-83
2022/03/31 00:46:46;;;;;;;0.47;0.47;;;;;;;;;;4977605;28;20038;-83
2022/03/31 00:49:13;;;;;;;0.40;0.35;;;;;;;;;;4973763;28;20030;-83
2022/03/31 00:51:39;;;;;;;0.30;0.30;;;;;;;;;;4977588;28;20035;-84
2022/03/31 00:54:05;;;;;;;0.57;0.57;;;;;;;;;;4970975;28;20105;-82
2022/03/31 00:56:31;;;;;;;2.37;2.00;;;;;;;;;;4978085;28;20074;-83
2022/03/31 00:58:58;;;;;;;2.60;0.88;;;;;;;;;;4974270;28;20151;-83
2022/03/31 01:01:24;;;;;;;0.77;0.77;;;;;;;;;;4977271;28;20057;-83
2022/03/31 01:03:51;;;;;;;2.90;1.45;;;;;;;;;;4971858;28;20059;-82
2022/03/31 01:06:17;;;;;;;2.90;1.33;;;;;;;;;;4980243;28;20498;-83
2022/03/31 01:08:44;;;;;;;4.70;0.50;;;;;;;;;;4975216;28;20526;-83
2022/03/31 01:11:10;;;;;;;0.57;0.57;;;;;;;;;;4978643;28;20053;-84
2022/03/31 01:13:36;;;;;;;0.67;0.67;;;;;;;;;;4977360;28;20042;-84
2022/03/31 01:16:02;;;;;;;1.17;1.05;;;;;;;;;;4976615;28;20262;-83
2022/03/31 01:18:28;;;;;;;1.20;0.93;;;;;;;;;;4981272;28;20141;-83
2022/03/31 01:20:54;;;;;;;7.20;2.42;;;;;;;;;;4977041;28;20038;-83
2022/03/31 01:23:21;;;;;;;1.27;1.27;;;;;;;;;;4981174;28;20045;-84
2022/03/31 01:25:47;;;;;;;;;;;;;;;;;;4978518;28;20114;-83
2022/03/31 01:28:13;;;;;;;2.33;1.75;;;;;;;;;;4977427;28;20092;-84
2022/03/31 01:30:39;;;;;;;2.97;1.97;;;;;;;;;;4979304;28;20174;-83
2022/03/31 01:33:05;;;;;;;3.00;1.17;;;;;;;;;;4976666;28;20500;-82
2022/03/31 01:35:31;;;;;;;1.77;1.55;;;;;;;;;;4975362;28;20030;-83
2022/03/31 01:37:57;;;;;;;0.70;0.70;;;;;;;;;;4975421;28;20066;-83
2022/03/31 01:40:23;;;;;;;2.17;1.98;;;;;;;;;;4975733;28;20066;-83
2022/03/31 01:42:49;;;;;;;0.88;0.88;;;;;;;;;;4973970;28;20574;-84
2022/03/31 01:45:18;;;;;;;2.07;0.93;;;;;;;;;;4973149;28;20045;-83
2022/03/31 01:47:44;;;;;;;2.17;1.48;;;;;;;;;;4982643;28;20113;-83
2022/03/31 01:50:11;;;;;;;0.93;0.88;;;;;;;;;;4978906;28;20034;-83
2022/03/31 01:52:41;;;;;;;0.73;0.73;;;;;;;;;;4975585;28;20137;-83
2022/03/31 01:55:07;;;;;;;1.63;1.52;;;;;;;;;;4983763;28;20037;-84
2022/03/31 01:57:33;;;;;;;0.82;0.82;;;;;;;;;;4973106;28;20047;-82
2022/03/31 02:00:02;;;;;;;3.73;2.23;;;;;;;;;;4975339;28;20038;-83
2022/03/31 02:02:30;;;;;;;0.82;0.82;;;;;;;;;;4978406;28;20033;-83
2022/03/31 02:04:56;;;;;;;1.58;1.10;;;;;;;;;;4976414;28;20034;-83
2022/03/31 02:07:22;;;;;;;1.07;0.97;;;;;;;;;;4972673;28;20034;-83
2022/03/31 02:09:48;;;;;;;0.68;0.68;;;;;;;;;;4975847;28;20274;-83
2022/03/31 02:12:14;;;;;;;6.43;2.50;;;;;;;;;;4978171;28;20034;-82
2022/03/31 02:14:41;;;;;;;33.17;2.47;;;;;;;;;;4983244;28;20162;-83
2022/03/31 02:17:08;;;;;;;3.05;1.38;;;;;;;;;;4969866;28;20546;-83
2022/03/31 02:19:34;;;;;;;11.70;3.03;;;;;;;;;;4975324;28;20041;-83
2022/03/31 02:22:01;;;;;;;1.20;1.17;;;;;;;;;;4974501;28;20042;-83
2022/03/31 02:24:27;;;;;;;1.48;1.30;;;;;;;;;;4977620;28;20089;-82
2022/03/31 02:26:54;;;;;;;2.33;2.17;;;;;;;;;;4977027;28;20042;-82
2022/03/31 02:29:20;;;;;;;0.77;0.77;;;;;;;;;;4974320;28;20169;-83
2022/03/31 02:31:47;;;;;;;0.85;0.85;;;;;;;;;;4970733;28;20117;-83
2022/03/31 02:34:16;;;;;;;1.48;1.38;;;;;;;;;;4976923;28;20648;-82
2022/03/31 02:36:43;;;;;;;33.03;1.67;;;;;;;;;;4980059;28;20573;-83
2022/03/31 02:39:10;;;;;;;3.45;0.73;;;;;;;;;;4977051;28;20038;-84
2022/03/31 02:41:36;;;;;;;;;;;;;;;;;;4970799;28;20145;-82
2022/03/31 02:44:03;;;;;;;1.98;1.83;;;;;;;;;;4977418;28;20676;-83
2022/03/31 02:46:29;;;;;;;2.35;2.15;;;;;;;;;;4981848;28;20046;-83
2022/03/31 02:48:56;;;;;;;2.07;1.87;;;;;;;;;;4980839;28;20034;-81
2022/03/31 02:51:22;;;;;;;2.08;1.98;;;;;;;;;;4979156;28;20313;-82
2022/03/31 02:56:33;;;;;;;0.63;0.52;;;;;;;;;;4976867;28;20056;-82
2022/03/31 02:58:59;;;;;;;3.83;1.92;;;;;;;;;;4978307;28;20042;-82
2022/03/31 03:01:27;;;;;;;0.80;0.80;;;;;;;;;;4971420;28;20081;-82
2022/03/31 03:03:53;;;;;;;4.00;2.03;;;;;;;;;;4976391;28;20026;-83
2022/03/31 03:06:19;;;;;;;4.57;2.43;;;;;;;;;;4978144;28;20420;-83
2022/03/31 03:08:45;;;;;;;4.03;1.38;;;;;;;;;;4978995;28;21285;-83
2022/03/31 03:11:12;;;;;;;1.50;1.40;;;;;;;;;;4976330;28;20034;-84
2022/03/31 03:13:38;;;;;;;1.80;1.70;;;;;;;;;;4969341;28;20117;-84
2022/03/31 03:16:08;;;;;;;0.50;0.50;;;;;;;;;;4974336;28;20066;-83
2022/03/31 03:18:38;;;;;;;1.35;1.25;;;;;;;;;;4977189;28;20042;-84
2022/03/31 03:21:06;;;;;;;26.08;2.72;;;;;;;;;;4975349;28;20026;-83
2022/03/31 03:23:33;;;;;;;1.65;1.55;;;;;;;;;;4975233;28;20446;-83
2022/03/31 03:26:00;;;;;;;0.98;0.50;;;;;;;;;;4973471;28;20632;-83
2022/03/31 03:28:27;;;;;;;5.07;3.00;;;;;;;;;;4975729;28;20056;-84
2022/03/31 03:30:53;;;;;;;1.17;1.13;;;;;;;;;;4980514;28;20523;-83
2022/03/31 03:33:19;;;;;;;1.97;1.67;;;;;;;;;;4970888;28;20062;-83
2022/03/31 03:35:45;;;;;;;0.47;0.47;;;;;;;;;;4968314;28;20031;-83
2022/03/31 03:38:11;;;;;;;1.60;1.02;;;;;;;;;;4973878;28;20464;-84
2022/03/31 03:40:37;;;;;;;1.37;1.27;;;;;;;;;;4982284;28;20122;-84
2022/03/31 03:43:04;;;;;;;5.72;1.42;;;;;;;;;;4977235;28;20041;-83
2022/03/31 03:45:30;;;;;;;10.02;3.90;;;;;;;;;;4971391;28;20102;-84
2022/03/31 03:47:58;;;;;;;1.53;1.43;;;;;;;;;;4976756;28;20030;-83
2022/03/31 03:50:25;;;;;;;1.25;1.08;;;;;;;;;;4976196;28;20146;-82
2022/03/31 03:52:51;;;;;;;2.65;2.10;;;;;;;;;;4974879;28;20042;-84
2022/03/31 03:55:17;;;;;;;7.88;3.80;;;;;;;;;;4975200;28;20034;-83
2022/03/31 03:57:43;;;;;;;2.67;1.07;;;;;;;;;;4971255;28;20050;-83
2022/03/31 04:00:10;;;;;;;1.33;1.33;;;;;;;;;;4975903;28;20023;-82
2022/03/31 04:02:36;;;;;;;0.50;0.50;;;;;;;;;;4972725;28;20549;-83
2022/03/31 04:05:03;;;;;;;1.65;0.75;;;;;;;;;;4966703;28;20027;-83
2022/03/31 04:07:29;;;;;;;1.65;1.50;;;;;;;;;;4971431;28;20039;-82
2022/03/31 04:09:55;;;;;;;1.20;1.13;;;;;;;;;;4979373;28;20026;-83
2022/03/31 04:12:22;;;;;;;0.70;0.70;;;;;;;;;;4975299;28;20046;-83
2022/03/31 04:14:49;;;;;;;0.40;0.40;;;;;;;;;;4975279;28;20030;-82
2022/03/31 04:17:15;;;;;;;1.98;1.48;;;;;;;;;;4970261;28;20034;-84
2022/03/31 04:19:42;;;;;;;0.83;0.83;;;;;;;;;;4976748;28;20093;-83
2022/03/31 04:22:08;;;;;;;1.52;1.48;;;;;;;;;;4973653;28;20034;-82
2022/03/31 04:24:34;;;;;;;3.17;2.90;;;;;;;;;;4969725;28;20085;-83
2022/03/31 04:27:00;;;;;;;1.98;1.30;;;;;;;;;;4977345;28;20038;-82
2022/03/31 04:29:27;;;;;;;1.17;1.00;;;;;;;;;;4969965;28;20820;-82
2022/03/31 04:31:53;;;;;;;1.40;0.65;;;;;;;;;;4973093;28;20499;-82
2022/03/31 04:34:20;;;;;;;7.90;1.92;;;;;;;;;;4978280;28;20411;-82
2022/03/31 04:36:48;;;;;;;0.57;0.57;;;;;;;;;;4975037;28;20464;-81
2022/03/31 04:39:15;;;;;;;0.98;0.98;;;;;;;;;;4982424;28;20038;-81
2022/03/31 04:41:41;;;;;;;0.40;0.40;;;;;;;;;;4978646;28;20089;-82
2022/03/31 04:44:08;;;;;;;0.43;0.43;;;;;;;;;;4977242;28;20030;-83
2022/03/31 04:46:34;;;;;;;0.65;0.65;;;;;;;;;;4972852;28;20038;-83
2022/03/31 04:49:05;;;;;;;1.98;1.80;;;;;;;;;;4982046;28;20507;-85
2022/03/31 04:51:31;;;;;;;0.93;0.80;;;;;;;;;;4976665;28;20169;-82
2022/03/31 04:53:57;;;;;;;0.98;0.98;;;;;;;;;;4980837;28;20117;-83
2022/03/31 04:56:23;;;;;;;1.87;1.73;;;;;;;;;;4971202;28;20150;-81
2022/03/31 04:58:49;;;;;;;1.55;1.45;;;;;;;;;;4981079;28;20038;-81
2022/03/31 05:01:17;;;;;;;2.03;1.85;;;;;;;;;;4980060;28;20026;-82
2022/03/31 05:03:43;;;;;;;0.93;0.93;;;;;;;;;;4973529;28;20069;-81
2022/03/31 05:06:09;;;;;;;2.08;1.15;;;;;;;;;;4976098;28;20034;-80
2022/03/31 05:08:37;;;;;;;2.03;1.93;;;;;;;;;;4982524;28;20038;-81
2022/03/31 05:11:02;;;;;;;0.82;0.65;;;;;;;;;;4983307;28;20455;-81
2022/03/31 05:13:29;;;;;;;0.68;0.68;;;;;;;;;;4985703;28;20033;-81
2022/03/31 05:15:55;;;;;;;4.95;3.10;;;;;;;;;;4980251;28;20034;-80
2022/03/31 05:18:21;;;;;;;0.67;0.67;;;;;;;;;;4980856;28;20030;-82
2022/03/31 05:20:47;;;;;;;2.55;1.95;;;;;;;;;;4981575;28;20294;-81
2022/03/31 05:23:13;;;;;;;1.88;1.67;;;;;;;;;;4981415;28;20085;-80
2022/03/31 05:25:39;;;;;;;0.93;0.93;;;;;;;;;;4982006;28;20534;-81
2022/03/31 05:28:06;;;;;;;5.82;2.60;;;;;;;;;;4982153;28;20500;-81
2022/03/31 05:30:32;;;;;;;4.22;1.27;;;;;;;;;;4983804;28;20026;-82
2022/03/31 05:32:59;;;;;;;0.88;0.88;;;;;;;;;;4984031;28;20034;-83
2022/03/31 05:35:27;;;;;;;3.28;2.97;;;;;;;;;;4977598;28;20065;-81
2022/03/31 05:37:54;;;;;;;4.40;2.28;;;;;;;;;;4974143;28;20136;-84
2022/03/31 05:40:20;;;;;;;1.05;1.05;;;;;;;;;;4978166;28;20597;-86
2022/03/31 05:42:46;;;;;;;1.90;1.63;;;;;;;;;;4976127;28;20042;-83
2022/03/31 05:45:13;;;;;;;2.42;2.22;;;;;;;;;;4978809;28;20053;-82
2022/03/31 05:47:39;;;;;;;;;;;;;;;;;;4975203;28;20042;-82
2022/03/31 05:50:08;;;;;;;1.92;1.33;;;;;;;;;;4971169;28;19920;-82
2022/03/31 05:52:38;;;;;;;1.80;1.70;;;;;;;;;;4980760;28;20089;-82
2022/03/31 05:55:04;;;;;;;0.95;0.95;;;;;;;;;;4971902;28;20474;-82
2022/03/31 05:57:30;;;;;;;1.40;1.30;;;;;;;;;;4980372;28;20042;-83
2022/03/31 05:59:56;;;;;;;1.25;1.23;;;;;;;;;;4981644;28;20052;-82
2022/03/31 06:02:22;;;;;;;2.23;1.00;;;;;;;;;;4981548;28;20026;-82
2022/03/31 06:04:48;;;;;;;3.97;2.23;;;;;;;;;;4983509;28;20062;-83
2022/03/31 06:07:14;;;;;;;2.05;1.95;;;;;;;;;;4983204;28;20665;-81
2022/03/31 06:09:40;;;;;;;1.83;1.67;;;;;;;;;;4983380;28;20034;-82
2022/03/31 06:12:06;;;;;;;5.93;1.97;;;;;;;;;;4982458;28;20046;-82
2022/03/31 06:14:32;;;;;;;0.73;0.73;;;;;;;;;;4979283;28;20043;-81
2022/03/31 06:16:58;;;;;;;0.93;0.93;;;;;;;;;;4982856;28;20332;-85
2022/03/31 06:19:24;;;;;;;4.53;2.67;;;;;;;;;;4985204;28;20046;-87
2022/03/31 06:21:50;;;;;;;1.40;1.30;;;;;;;;;;4982166;28;20038;-81
2022/03/31 06:24:17;;;;;;;2.00;1.67;;;;;;;;;;4977788;28;20053;-82
2022/03/31 06:26:43;;;;;;;3.67;1.97;;;;;;;;;;4982328;28;20034;-82
2022/03/31 06:29:09;;;;;;;0.77;0.77;;;;;;;;;;4982244;28;20058;-82
2022/03/31 06:31:35;;;;;;;3.53;2.83;;;;;;;;;;4983394;28;20022;-81
2022/03/31 06:34:01;;;;;;;1.23;1.23;;;;;;;;;;4974534;28;20050;-81
2022/03/31 06:36:29;;;;;;;1.27;1.27;;;;;;;;;;4982228;28;20034;-81
2022/03/31 06:38:55;;;;;;;2.85;2.55;;;;;;;;;;4982011;28;20429;-80
2022/03/31 06:41:21;;;;;;;1.87;1.77;;;;;;;;;;4970050;28;20097;-81
2022/03/31 06:43:48;;;;;;;1.03;1.03;;;;;;;;;;4980197;28;20034;-82
2022/03/31 06:46:15;;;;;;;2.40;2.08;;;;;;;;;;4983305;28;20034;-81
2022/03/31 06:48:41;;;;;;;1.33;1.30;;;;;;;;;;4981730;28;20083;-81
2022/03/31 06:51:08;;;;;;;1.20;1.20;;;;;;;;;;4981353;28;20080;-81
2022/03/31 06:53:37;;;;;;;1.75;1.65;;;;;;;;;;4981347;28;20038;-80
2022/03/31 06:56:04;;;;;;;2.05;1.83;;;;;;;;;;4979154;28;20133;-81
2022/03/31 06:58:30;;;;;;;6.65;1.88;;;;;;;;;;4970055;28;20031;-81
2022/03/31 07:00:56;;;;;;;1.40;1.25;;;;;;;;;;4980837;28;20112;-81
2022/03/31 07:03:22;;;;;;;1.95;1.85;;;;;;;;;;4981658;28;20075;-82
2022/03/31 07:05:48;;;;;;;1.73;1.63;;;;;;;;;;4981119;28;20104;-82
2022/03/31 07:08:15;;;;;;;1.30;1.20;;;;;;;;;;4981468;28;20030;-80
2022/03/31 07:10:41;;;;;;;1.08;1.08;;;;;;;;;;4984191;28;20121;-81
2022/03/31 07:13:07;;;;;;;1.10;1.00;;;;;;;;;;4981979;28;20078;-81
2022/03/31 07:15:33;;;;;;;1.98;1.65;;;;;;;;;;4981753;28;20107;-81
2022/03/31 07:18:05;;;;;;;2.23;2.10;;;;;;;;;;4983894;28;20065;-81
2022/03/31 07:20:32;;;;;;;1.85;1.48;;;;;;;;;;4981142;28;20034;-82
2022/03/31 07:22:59;;;;;;;5.75;2.58;;;;;;;;;;4983236;28;20031;-81
2022/03/31 07:25:26;;;;;;;3.55;3.20;;;;;;;;;;4984442;28;20030;-81
2022/03/31 07:27:52;;;;;;;1.80;1.70;;;;;;;;;;4981085;28;20038;-83
2022/03/31 07:30:19;;;;;;;4.07;2.05;;;;;;;;;;4981017;28;20026;-81
2022/03/31 07:32:52;;;;;;;4.45;2.55;;;;;;;;;;4981214;28;20026;-83
2022/03/31 07:35:19;;;;;;;4.05;1.52;;;;;;;;;;4981159;28;20046;-81
2022/03/31 07:37:45;;;;;;;0.70;0.70;;;;;;;;;;4983464;28;20388;-82
2022/03/31 07:40:11;;;;;;;2.10;1.90;;;;;;;;;;4982242;28;20044;-81
2022/03/31 07:42:37;;;;;;;1.85;1.77;;;;;;;;;;4981003;28;20462;-81
2022/03/31 07:45:04;;;;;;;1.75;1.65;;;;;;;;;;4980783;28;20030;-81
2022/03/31 07:47:30;;;;;;;16.40;2.53;;;;;;;;;;4982335;28;20035;-82
2022/03/31 07:49:56;;;;;;;2.95;1.52;;;;;;;;;;4982022;28;20026;-81
2022/03/31 07:52:22;;;;;;;2.23;1.23;;;;;;;;;;4978045;28;20037;-82
2022/03/31 07:54:48;;;;;;;4.50;2.00;;;;;;;;;;4980772;28;20050;-82
2022/03/31 07:57:14;;;;;;;2.88;2.22;;;;;;;;;;4980269;28;20081;-81
2022/03/31 07:59:41;;;;;;;3.30;1.25;;;;;;;;;;4980673;28;20038;-82
2022/03/31 08:02:07;;;;;;;2.93;0.97;;;;;;;;;;4965353;28;20026;-82
2022/03/31 08:04:33;;;;;;;1.50;1.37;;;;;;;;;;4981760;28;20274;-81
2022/03/31 08:07:00;;;;;;;0.88;0.88;;;;;;;;;;4980540;28;20042;-81
2022/03/31 08:09:26;;;;;;;2.00;1.85;;;;;;;;;;4986414;28;20138;-82
2022/03/31 08:11:52;;;;;;;3.42;1.92;;;;;;;;;;4988602;28;20034;-81
2022/03/31 08:14:21;;;;;;;2.53;1.23;;;;;;;;;;4987182;28;20182;-81
2022/03/31 08:16:48;;;;;;;7.78;4.03;;;;;;;;;;4989287;28;20044;-81
2022/03/31 08:19:15;;;;;;;1.73;1.63;;;;;;;;;;4987898;28;20428;-81
2022/03/31 08:21:42;;;;;;;8.02;1.20;;;;;;;;;;4987135;28;20125;-81
2022/03/31 08:24:08;;;;;;;;;;;;;;;;;;4989082;28;20486;-82
2022/03/31 08:26:34;;;;;;;2.08;1.98;;;;;;;;;;4987321;28;19913;-81
2022/03/31 08:29:00;;;;;;;0.60;0.60;;;;;;;;;;4988531;28;20046;-81
2022/03/31 08:31:27;;;;;;;1.17;1.17;;;;;;;;;;4989255;28;20645;-81
2022/03/31 08:33:53;;;;;;;0.95;0.95;;;;;;;;;;4986509;28;20817;-81
2022/03/31 08:36:19;;;;;;;4.03;2.17;;;;;;;;;;4986849;28;20523;-82
2022/03/31 08:38:45;;;;;;;1.98;1.88;;;;;;;;;;4988281;28;20304;-82
2022/03/31 08:41:13;;;;;;;1.63;1.53;;;;;;;;;;4987271;28;20023;-82
2022/03/31 08:43:41;;;;;;;11.90;1.52;;;;;;;;;;4990191;28;20410;-81
2022/03/31 08:46:09;;;;;;;1.15;1.15;;;;;;;;;;4987191;28;20149;-82
2022/03/31 08:48:35;;;;;;;1.15;1.15;;;;;;;;;;4987519;28;20038;-81
2022/03/31 08:51:01;;;;;;;2.90;2.38;;;;;;;;;;4987715;28;20045;-82
2022/03/31 08:53:27;;;;;;;1.80;1.73;;;;;;;;;;4986451;28;20043;-81
2022/03/31 08:55:53;;;;;;;1.57;1.43;;;;;;;;;;4988452;28;20521;-81
2022/03/31 08:58:19;;;;;;;2.20;2.00;;;;;;;;;;4988026;28;20030;-82
2022/03/31 09:00:45;;;;;;;1.35;1.05;;;;;;;;;;4986422;28;20704;-82
2022/03/31 09:03:11;;;;;;;0.67;0.67;;;;;;;;;;4987543;28;20034;-81
2022/03/31 09:05:37;;;;;;;2.63;2.40;;;;;;;;;;4987640;28;20034;-82
2022/03/31 09:08:05;;;;;;;0.97;0.97;;;;;;;;;;4987050;28;20046;-82
2022/03/31 09:10:57;;;;;;;2.75;1.83;;;;;;;;;;4989362;28;20037;-81
2022/03/31 09:13:30;;;;;;;0.95;0.95;;;;;;;;;;4989265;28;20050;-82
2022/03/31 09:16:01;;;;;;;1.95;1.38;;;;;;;;;;4984879;28;20120;-81
2022/03/31 09:18:28;;;;;;;0.65;0.65;;;;;;;;;;4986012;28;20030;-81
2022/03/31 09:20:56;;;;;;;3.63;1.73;;;;;;;;;;4982242;28;20037;-82
2022/03/31 09:23:23;;;;;;;28.13;1.80;;;;;;;;;;4983098;28;20100;-82
2022/03/31 09:25:53;;;;;;;2.60;2.17;;;;;;;;;;4985571;28;20065;-81
2022/03/31 09:28:23;;;;;;;2.45;2.22;;;;;;;;;;4984491;28;20657;-81
2022/03/31 09:30:53;;;;;;;0.93;0.93;;;;;;;;;;4982720;28;20077;-82
2022/03/31 09:33:27;;;;;;;1.85;1.23;;;;;;;;;;4983036;28;20064;-81
2022/03/31 09:35:57;;;;;;;2.95;1.48;;;;;;;;;;4982867;28;20185;-82
2022/03/31 09:38:23;;;;;;;4.20;2.50;;;;;;;;;;4982639;28;20041;-81
2022/03/31 09:40:49;;;;;;;2.37;2.07;;;;;;;;;;4985335;28;20031;-82
2022/03/31 09:43:15;;;;;;;4.40;3.57;;;;;;;;;;4984276;28;20886;-82
2022/03/31 09:45:41;;;;;;;3.70;1.20;;;;;;;;;;4982805;28;20649;-82
2022/03/31 09:48:17;;;;;;;1.17;1.13;;;;;;;;;;4982806;28;20549;-82
2022/03/31 09:50:44;;;;;;;1.50;1.25;;;;;;;;;;4982747;28;20045;-82
2022/03/31 09:53:11;;;;;;;15.85;1.15;;;;;;;;;;4982958;28;20105;-81
2022/03/31 09:55:38;;;;;;;1.83;1.65;;;;;;;;;;4986447;28;20057;-81
2022/03/31 09:58:04;;;;;;;0.80;0.80;;;;;;;;;;4983141;28;20050;-82
2022/03/31 10:00:30;;;;;;;1.17;1.17;;;;;;;;;;4982388;28;20062;-82
2022/03/31 10:02:59;;;;;;;0.70;0.70;;;;;;;;;;4983033;28;20033;-81
2022/03/31 10:05:26;;;;;;;13.88;2.88;;;;;;;;;;4982580;28;20563;-82
2022/03/31 10:07:52;;;;;;;;;;;;;;;;;;4985708;28;20026;-82
2022/03/31 10:10:18;;;;;;;5.03;1.80;;;;;;;;;;4983673;28;20335;-82
2022/03/31 10:13:01;;;;;;;1.25;0.82;;;;;;;;;;4982537;28;20030;-81
2022/03/31 10:15:29;;;;;;;4.90;2.08;;;;;;;;;;4982603;28;20450;-81
2022/03/31 10:17:55;;;;;;;0.73;0.68;;;;;;;;;;4982459;28;20034;-82
2022/03/31 10:20:22;;;;;;;0.87;0.87;;;;;;;;;;4982655;28;20742;-82
2022/03/31 10:25:41;;;;;;;1.83;1.73;;;;;;;;;;4982092;28;20049;-81
2022/03/31 10:28:11;;;;;;;3.00;1.75;;;;;;;;;;4982018;28;20039;-82
2022/03/31 10:30:38;;;;;;;2.28;1.40;;;;;;;;;;4981599;28;20045;-82
2022/03/31 10:33:05;;;;;;;2.30;2.10;;;;;;;;;;4978510;28;20503;-81
2022/03/31 10:35:32;;;;;;;1.10;1.02;;;;;;;;;;4975065;28;20042;-81
2022/03/31 10:37:59;;;;;;;3.70;1.88;;;;;;;;;;4967659;28;20410;-81
2022/03/31 10:40:30;;;;;;;1.48;1.13;;;;;;;;;;4977095;28;20026;-82
2022/03/31 10:42:56;;;;;;;2.80;2.17;;;;;;;;;;4977129;28;20031;-80
2022/03/31 10:45:33;;;;;;;1.42;1.38;;;;;;;;;;4983143;28;20050;-82
2022/03/31 10:47:59;;;;;;;0.73;0.73;;;;;;;;;;4974833;28;20038;-83
2022/03/31 10:50:28;;;;;;;1.03;1.03;;;;;;;;;;4981661;28;20030;-82
2022/03/31 10:52:58;;;;;;;2.45;2.05;;;;;;;;;;4967782;28;20632;-82
2022/03/31 10:55:33;;;;;;;2.30;2.10;;;;;;;;;;4977119;28;20046;-81
2022/03/31 10:57:59;;;;;;;0.80;0.80;;;;;;;;;;4979268;28;20057;-81
2022/03/31 11:00:25;;;;;;;2.33;2.13;;;;;;;;;;4982279;28;20030;-82
2022/03/31 11:02:54;;;;;;;0.63;0.63;;;;;;;;;;4973914;28;20594;-81
2022/03/31 11:05:25;;;;;;;2.85;1.30;;;;;;;;;;4981061;28;20046;-82
2022/03/31 11:08:01;;;;;;;2.63;2.42;;;;;;;;;;4982402;28;20022;-82
2022/03/31 11:10:27;;;;;;;2.30;1.35;;;;;;;;;;4969517;28;20049;-82
2022/03/31 11:12:53;;;;;;;2.50;2.13;;;;;;;;;;4969990;28;20113;-82
2022/03/31 11:15:19;;;;;;;1.23;1.07;;;;;;;;;;4978272;28;20042;-82
2022/03/31 11:17:47;;;;;;;1.57;0.97;;;;;;;;;;4980555;28;20273;-84
2022/03/31 11:20:13;;;;;;;1.48;1.45;;;;;;;;;;4980120;28;20034;-83
2022/03/31 11:22:46;;;;;;;0.77;0.77;;;;;;;;;;4979398;28;20062;-82
2022/03/31 11:25:13;;;;;;;1.20;1.10;;;;;;;;;;4974960;28;20027;-82
2022/03/31 11:27:40;;;;;;;0.93;0.93;;;;;;;;;;4974853;28;20389;-82
2022/03/31 11:30:06;;;;;;;;;;;;;;;;;;4973881;28;20034;-83
2022/03/31 11:32:32;;;;;;;3.85;2.38;;;;;;;;;;4978353;28;19920;-83
2022/03/31 11:34:58;;;;;;;;;;;;;;;;;;4971342;28;20136;-82
2022/03/31 11:37:25;;;;;;;3.35;1.13;;;;;;;;;;4980780;28;19910;-82
2022/03/31 11:39:51;;;;;;;0.98;0.98;;;;;;;;;;4972198;28;20035;-82
2022/03/31 11:42:17;;;;;;;0.93;0.88;;;;;;;;;;4970418;28;20041;-83
2022/03/31 11:44:43;;;;;;;2.00;1.88;;;;;;;;;;4975903;28;20479;-82
2022/03/31 11:47:17;;;;;;;1.93;1.23;;;;;;;;;;4980377;28;20491;-81
2022/03/31 11:49:44;;;;;;;0.77;0.77;;;;;;;;;;4993720;28;20276;-82
2022/03/31 11:52:10;;;;;;;3.38;1.38;;;;;;;;;;4981677;28;20031;-85
2022/03/31 11:54:41;;;;;;;0.82;0.82;;;;;;;;;;4980934;28;20159;-83
2022/03/31 11:57:08;;;;;;;1.42;1.33;;;;;;;;;;4980283;28;20053;-82
2022/03/31 11:59:35;;;;;;;2.33;1.80;;;;;;;;;;4980820;28;20034;-82
2022/03/31 12:02:01;;;;;;;1.02;1.02;;;;;;;;;;4982121;28;20402;-82
2022/03/31 12:04:29;;;;;;;0.95;0.95;;;;;;;;;;4983221;28;20513;-82
2022/03/31 12:06:57;;;;;;;0.63;0.63;;;;;;;;;;4980670;28;20498;-82
2022/03/31 12:09:26;;;;;;;0.68;0.68;;;;;;;;;;4975670;28;20108;-82
2022/03/31 12:11:52;;;;;;;0.95;0.95;;;;;;;;;;4970326;28;20038;-82
2022/03/31 12:14:18;;;;;;;0.40;0.40;;;;;;;;;;4980269;28;20124;-81
2022/03/31 12:16:49;;;;;;;19.77;1.63;;;;;;;;;;4983224;28;20030;-82
2022/03/31 12:19:15;;;;;;;6.22;1.98;;;;;;;;;;4982910;28;20269;-81
2022/03/31 12:21:59;;;;;;;4.53;1.83;;;;;;;;;;4980443;28;20486;-81
2022/03/31 12:24:26;;;;;;;2.58;1.33;;;;;;;;;;4979971;28;20046;-81
2022/03/31 12:26:53;;;;;;;0.47;0.45;;;;;;;;;;4979916;28;20049;-81
2022/03/31 12:29:19;;;;;;;0.90;0.90;;;;;;;;;;4979998;28;20479;-82
2022/03/31 12:31:46;;;;;;;1.10;0.98;;;;;;;;;;4980984;28;20105;-83
2022/03/31 12:34:12;;;;;;;0.50;0.50;;;;;;;;;;4981053;28;20092;-82
2022/03/31 12:36:38;;;;;;;0.77;0.77;;;;;;;;;;4980282;28;20034;-82
2022/03/31 12:39:05;;;;;;;2.28;1.25;;;;;;;;;;4980215;28;20038;-82
2022/03/31 12:41:36;;;;;;;3.25;1.65;;;;;;;;;;4981388;28;20038;-84
2022/03/31 12:44:16;;;;;;;4.10;1.85;;;;;;;;;;4981447;28;20039;-83
2022/03/31 12:46:55;;;;;;;1.67;1.48;;;;;;;;;;4980034;28;20534;-84
2022/03/31 12:49:25;;;;;;;4.20;1.67;;;;;;;;;;4982185;28;20034;-82
2022/03/31 12:51:51;;;;;;;2.47;1.45;;;;;;;;;;4971110;28;20161;-82
2022/03/31 12:54:32;;;;;;;0.60;0.60;;;;;;;;;;4974772;28;20049;-82
2022/03/31 12:57:13;;;;;;;2.08;1.25;;;;;;;;;;4983236;28;20475;-83
2022/03/31 12:59:39;;;;;;;3.00;0.82;;;;;;;;;;4983550;28;20034;-82
2022/03/31 13:02:09;;;;;;;0.45;0.45;;;;;;;;;;4984785;28;20105;-82
2022/03/31 13:04:36;;;;;;;7.68;1.15;;;;;;;;;;4987039;28;20802;-82
2022/03/31 13:07:09;;;;;;;2.80;1.55;;;;;;;;;;4985256;28;20034;-82
2022/03/31 13:09:35;;;;;;;0.75;0.75;;;;;;;;;;4983446;28;20531;-82
2022/03/31 13:12:03;;;;;;;1.80;1.37;;;;;;;;;;4983199;28;20040;-84
2022/03/31 13:14:32;;;;;;;0.25;0.25;;;;;;;;;;4982131;28;20134;-83
2022/03/31 13:16:58;;;;;;;0.40;0.40;;;;;;;;;;4980764;28;20034;-85
2022/03/31 13:19:24;;;;;;;2.03;1.55;;;;;;;;;;4983936;28;20149;-85
2022/03/31 13:21:50;;;;;;;0.47;0.47;;;;;;;;;;4984634;28;20405;-85
2022/03/31 13:24:17;;;;;;;1.48;1.38;;;;;;;;;;4981368;28;20562;-83
2022/03/31 13:26:43;;;;;;;0.73;0.73;;;;;;;;;;4982841;28;20030;-84
2022/03/31 13:29:12;;;;;;;8.13;1.98;;;;;;;;;;4984747;28;20038;-83
2022/03/31 13:31:40;;;;;;;0.95;0.95;;;;;;;;;;4985339;28;20558;-84
2022/03/31 13:34:07;;;;;;;3.97;2.08;;;;;;;;;;4985471;28;20518;-83
2022/03/31 13:36:33;;;;;;;0.95;0.90;;;;;;;;;;4985266;28;20049;-82
2022/03/31 13:38:59;;;;;;;4.43;1.58;;;;;;;;;;4985728;28;20566;-82
2022/03/31 13:41:27;;;;;;;0.53;0.53;;;;;;;;;;4985161;28;20041;-82
2022/03/31 13:43:54;;;;;;;1.30;1.23;;;;;;;;;;4985106;28;20439;-83
2022/03/31 13:46:20;;;;;;;;;;;;;;;;;;4985267;28;20037;-83
2022/03/31 13:48:46;;;;;;;0.75;0.75;;;;;;;;;;4984820;28;19914;-83
2022/03/31 13:51:12;;;;;;;0.47;0.37;;;;;;;;;;4984841;28;20181;-83
2022/03/31 13:53:45;;;;;;;0.77;0.77;;;;;;;;;;4984918;28;20176;-83
2022/03/31 13:56:12;;;;;;;0.38;0.38;;;;;;;;;;4982484;28;20046;-83
2022/03/31 14:01:23;;;;;;;1.42;1.33;;;;;;;;;;4983384;28;19923;-84
2022/03/31 14:03:52;;;;;;;0.82;0.82;;;;;;;;;;4980226;28;20058;-83
2022/03/31 14:06:20;;;;;;;1.02;0.75;;;;;;;;;;4983536;28;20069;-83
2022/03/31 14:08:46;;;;;;;0.73;0.73;;;;;;;;;;4984694;28;20117;-83
2022/03/31 14:11:12;;;;;;;1.73;0.93;;;;;;;;;;4982942;28;20508;-82
2022/03/31 14:13:39;;;;;;;1.13;0.85;;;;;;;;;;4984745;28;20640;-83
2022/03/31 14:16:05;;;;;;;1.20;1.17;;;;;;;;;;4984413;28;20041;-82
2022/03/31 14:18:32;;;;;;;0.95;0.95;;;;;;;;;;4982918;28;20555;-82
2022/03/31 14:20:58;;;;;;;0.63;0.63;;;;;;;;;;4984442;28;20142;-82
2022/03/31 14:23:25;;;;;;;1.40;1.30;;;;;;;;;;4980581;28;20470;-82
2022/03/31 14:25:54;;;;;;;;;;;;;;;;;;4973130;28;20488;-82
2022/03/31 14:28:20;;;;;;;1.55;0.73;;;;;;;;;;4979469;28;20008;-82
2022/03/31 14:30:46;;;;;;;1.70;1.60;;;;;;;;;;4984678;28;20034;-82
2022/03/31 14:33:13;;;;;;;0.65;0.65;;;;;;;;;;4984649;28;20430;-82
2022/03/31 14:35:39;;;;;;;2.58;1.38;;;;;;;;;;4984090;28;20034;-82
2022/03/31 14:38:05;;;;;;;1.20;1.20;;;;;;;;;;4984162;28;20030;-82
2022/03/31 14:40:32;;;;;;;0.57;0.57;;;;;;;;;;4984948;28;20104;-82
2022/03/31 14:42:59;;;;;;;3.72;1.25;;;;;;;;;;4984076;28;20113;-83
2022/03/31 14:45:27;;;;;;;16.77;1.00;;;;;;;;;;4984018;28;20080;-83
2022/03/31 14:47:53;;;;;;;5.30;1.45;;;;;;;;;;4975690;28;20030;-82
2022/03/31 14:50:19;;;;;;;1.88;0.88;;;;;;;;;;4981832;28;20030;-83
2022/03/31 14:52:45;;;;;;;4.27;1.33;;;;;;;;;;4981132;28;20412;-82
2022/03/31 14:55:12;;;;;;;2.85;1.35;;;;;;;;;;4981081;28;20325;-82